Time;durP1;ratioP1;P1;durP2;ratioP2;P2;SDS_P1;SDS_P2;PMS_P1;PMS_P2;Temp;Humidity;BMP_temperature;BMP_pressure;BME280_temperature;BME280_humidity;BME280_pressure;Samples;Min_cycle;Max_cycle;Signal;HPM_P1;HPM_P2
2022/05/25 00:00:22;;;;;;;6.55;5.68;;;;;;;;;;143724;599;47010;-58
2022/05/25 00:02:49;;;;;;;10.02;5.72;;;;;;;;;;143726;624;46020;-58
2022/05/25 00:05:17;;;;;;;14.05;6.40;;;;;;;;;;143729;940;46011;-57
2022/05/25 00:07:44;;;;;;;9.80;7.35;;;;;;;;;;143726;565;47020;-58
2022/05/25 00:10:12;;;;;;;10.65;8.13;;;;;;;;;;143726;625;47010;-58
2022/05/25 00:12:41;;;;;;;11.00;7.00;;;;;;;;;;143728;689;45021;-58
2022/05/25 00:15:10;;;;;;;13.38;7.90;;;;;;;;;;143730;585;46010;-58
2022/05/25 00:17:37;;;;;;;9.38;6.35;;;;;;;;;;143724;563;47020;-58
2022/05/25 00:20:05;;;;;;;9.20;7.50;;;;;;;;;;143725;775;47010;-58
2022/05/25 00:22:48;;;;;;;10.35;6.70;;;;;;;;;;143728;584;45020;-58
2022/05/25 00:25:30;;;;;;;10.70;8.30;;;;;;;;;;143730;632;46020;-58
2022/05/25 00:27:58;;;;;;;10.65;7.18;;;;;;;;;;143725;772;47020;-58
2022/05/25 00:30:26;;;;;;;9.48;6.95;;;;;;;;;;143726;679;46010;-58
2022/05/25 00:32:54;;;;;;;10.77;7.05;;;;;;;;;;143727;601;46910;-58
2022/05/25 00:35:23;;;;;;;11.23;8.32;;;;;;;;;;143730;611;46021;-58
2022/05/25 00:37:50;;;;;;;12.88;8.48;;;;;;;;;;143726;594;47020;-58
2022/05/25 00:40:27;;;;;;;10.45;7.95;;;;;;;;;;143725;586;47010;-58
2022/05/25 00:42:54;;;;;;;10.10;7.25;;;;;;;;;;143729;570;45021;-57
2022/05/25 00:45:21;;;;;;;10.55;6.82;;;;;;;;;;143729;766;46020;-58
2022/05/25 00:47:51;;;;;;;13.93;8.05;;;;;;;;;;143725;591;47021;-58
2022/05/25 00:50:23;;;;;;;14.18;7.50;;;;;;;;;;143727;573;46010;-58
2022/05/25 00:52:51;;;;;;;15.02;8.35;;;;;;;;;;143727;824;45909;-58
2022/05/25 00:55:29;;;;;;;13.55;8.30;;;;;;;;;;143729;594;46020;-58
2022/05/25 00:58:00;;;;;;;14.40;9.02;;;;;;;;;;143725;624;47020;-57
2022/05/25 01:00:29;;;;;;;10.80;7.35;;;;;;;;;;143724;651;47010;-58
2022/05/25 01:03:06;;;;;;;8.15;6.93;;;;;;;;;;143728;708;45909;-57
2022/05/25 01:06:18;;;;;;;8.18;6.68;;;;;;;;;;143730;783;46010;-58
2022/05/25 01:09:08;;;;;;;8.20;6.57;;;;;;;;;;143726;613;47022;-58
2022/05/25 01:11:55;;;;;;;11.23;5.95;;;;;;;;;;143725;602;47010;-58
2022/05/25 01:14:56;;;;;;;7.05;5.65;;;;;;;;;;143754;567;44911;-58
2022/05/25 01:18:12;;;;;;;11.77;8.10;;;;;;;;;;143757;761;45022;-58
2022/05/25 01:20:46;;;;;;;10.48;5.85;;;;;;;;;;143754;708;46023;-58
2022/05/25 01:23:48;;;;;;;7.17;5.67;;;;;;;;;;143755;625;45021;-58
2022/05/25 01:27:11;;;;;;;12.15;8.30;;;;;;;;;;143758;613;44021;-58
2022/05/25 01:30:14;;;;;;;11.10;6.72;;;;;;;;;;143755;625;46010;-58
2022/05/25 01:33:14;;;;;;;12.37;7.62;;;;;;;;;;143755;742;46021;-58
2022/05/25 01:36:05;;;;;;;11.48;7.18;;;;;;;;;;143755;838;45916;-58
2022/05/25 01:39:09;;;;;;;11.35;7.85;;;;;;;;;;143757;903;44020;-58
2022/05/25 01:42:09;;;;;;;10.85;7.25;;;;;;;;;;143757;752;45021;-58
2022/05/25 01:45:01;;;;;;;8.75;6.25;;;;;;;;;;143754;867;46020;-58
2022/05/25 01:47:31;;;;;;;12.20;7.62;;;;;;;;;;143755;602;45918;-58
2022/05/25 01:50:07;;;;;;;11.60;7.07;;;;;;;;;;143756;719;45010;-58
2022/05/25 01:52:41;;;;;;;11.48;6.80;;;;;;;;;;143757;892;45010;-58
2022/05/25 01:55:13;;;;;;;10.93;7.30;;;;;;;;;;143757;909;45022;-58
2022/05/25 01:57:46;;;;;;;9.43;6.43;;;;;;;;;;143753;585;45917;-58
2022/05/25 02:00:43;;;;;;;11.00;7.28;;;;;;;;;;143755;582;45020;-58
2022/05/25 02:06:28;;;;;;;9.20;6.72;;;;;;;;;;143757;593;45010;-58
2022/05/25 02:09:33;;;;;;;8.63;7.00;;;;;;;;;;143753;756;46010;-58
2022/05/25 02:12:33;;;;;;;9.05;6.37;;;;;;;;;;143754;697;45012;-58
2022/05/25 02:15:58;;;;;;;9.88;6.50;;;;;;;;;;143732;591;46010;-58
2022/05/25 02:18:39;;;;;;;7.45;5.65;;;;;;;;;;143726;586;46022;-58
2022/05/25 02:21:48;;;;;;;8.27;6.20;;;;;;;;;;143727;641;46020;-58
2022/05/25 02:24:57;;;;;;;11.68;7.30;;;;;;;;;;143726;630;46012;-59
2022/05/25 02:27:44;;;;;;;13.93;6.43;;;;;;;;;;143731;629;46010;-58
2022/05/25 02:30:19;;;;;;;8.40;6.32;;;;;;;;;;143727;597;46022;-58
2022/05/25 02:33:16;;;;;;;12.90;7.57;;;;;;;;;;143727;809;46021;-58
2022/05/25 02:35:45;;;;;;;15.05;6.35;;;;;;;;;;143728;609;46012;-58
2022/05/25 02:38:13;;;;;;;7.65;6.10;;;;;;;;;;143729;702;46020;-58
2022/05/25 02:40:41;;;;;;;10.02;7.60;;;;;;;;;;143723;567;47022;-58
2022/05/25 02:43:09;;;;;;;9.52;6.75;;;;;;;;;;143726;682;46020;-58
2022/05/25 02:45:38;;;;;;;8.02;6.47;;;;;;;;;;143729;645;46012;-58
2022/05/25 02:48:05;;;;;;;10.68;7.57;;;;;;;;;;143730;605;46010;-58
2022/05/25 02:50:33;;;;;;;13.30;7.70;;;;;;;;;;143727;706;46022;-58
2022/05/25 02:53:00;;;;;;;9.65;7.22;;;;;;;;;;143727;601;46020;-58
2022/05/25 02:55:27;;;;;;;11.40;7.75;;;;;;;;;;143726;569;46013;-58
2022/05/25 02:57:57;;;;;;;10.77;7.68;;;;;;;;;;143731;566;46010;-58
2022/05/25 03:00:24;;;;;;;9.57;6.20;;;;;;;;;;143728;839;46020;-58
2022/05/25 03:02:51;;;;;;;12.75;7.47;;;;;;;;;;143721;566;47021;-58
2022/05/25 03:05:18;;;;;;;12.70;8.23;;;;;;;;;;143726;662;46012;-58
2022/05/25 03:07:45;;;;;;;16.42;7.75;;;;;;;;;;143728;693;46020;-57
2022/05/25 03:10:12;;;;;;;10.07;6.80;;;;;;;;;;143726;593;47020;-57
2022/05/25 03:12:39;;;;;;;9.70;6.60;;;;;;;;;;143725;674;46020;-58
2022/05/25 03:15:07;;;;;;;13.32;8.25;;;;;;;;;;143728;871;46012;-58
2022/05/25 03:17:34;;;;;;;11.32;6.45;;;;;;;;;;143731;592;46020;-58
2022/05/25 03:20:01;;;;;;;11.73;7.57;;;;;;;;;;143726;581;46023;-58
2022/05/25 03:22:28;;;;;;;12.65;7.25;;;;;;;;;;143726;595;46020;-58
2022/05/25 03:24:55;;;;;;;10.85;7.50;;;;;;;;;;143727;612;46012;-57
2022/05/25 03:27:22;;;;;;;10.98;6.80;;;;;;;;;;143729;769;46020;-58
2022/05/25 03:29:50;;;;;;;12.15;6.18;;;;;;;;;;143728;693;46022;-58
2022/05/25 03:32:17;;;;;;;14.18;8.32;;;;;;;;;;143726;621;46021;-58
2022/05/25 03:34:48;;;;;;;8.52;6.07;;;;;;;;;;143726;581;46012;-58
2022/05/25 03:37:15;;;;;;;9.75;7.50;;;;;;;;;;143731;588;46010;-57
2022/05/25 03:39:42;;;;;;;9.20;6.80;;;;;;;;;;143725;691;47021;-58
2022/05/25 03:42:13;;;;;;;12.77;6.62;;;;;;;;;;143725;589;46020;-58
2022/05/25 03:44:40;;;;;;;21.45;8.40;;;;;;;;;;143728;653;46012;-58
2022/05/25 03:47:07;;;;;;;9.20;6.20;;;;;;;;;;143728;581;46012;-57
2022/05/25 03:49:34;;;;;;;9.95;6.75;;;;;;;;;;143727;801;46023;-58
2022/05/25 03:52:02;;;;;;;12.13;7.07;;;;;;;;;;143724;672;46020;-57
2022/05/25 03:54:29;;;;;;;15.75;7.80;;;;;;;;;;143726;586;46020;-58
2022/05/25 03:56:55;;;;;;;10.15;5.97;;;;;;;;;;143730;583;46010;-58
2022/05/25 03:59:23;;;;;;;19.27;7.65;;;;;;;;;;143728;605;46022;-58
2022/05/25 04:01:50;;;;;;;9.38;6.65;;;;;;;;;;143725;724;46021;-57
2022/05/25 04:04:17;;;;;;;11.93;7.10;;;;;;;;;;143726;606;46012;-57
2022/05/25 04:06:44;;;;;;;10.70;7.70;;;;;;;;;;143731;578;46010;-58
2022/05/25 04:09:11;;;;;;;14.20;8.52;;;;;;;;;;143726;590;47021;-58
2022/05/25 04:11:40;;;;;;;18.65;7.68;;;;;;;;;;143725;569;46020;-57
2022/05/25 04:14:07;;;;;;;14.13;7.90;;;;;;;;;;143727;603;46012;-58
2022/05/25 04:16:34;;;;;;;19.87;8.50;;;;;;;;;;143730;630;46020;-57
2022/05/25 04:19:02;;;;;;;19.87;13.82;;;;;;;;;;143728;586;46023;-57
2022/05/25 04:21:29;;;;;;;20.77;11.65;;;;;;;;;;143724;597;46020;-58
2022/05/25 04:23:56;;;;;;;11.43;7.47;;;;;;;;;;143727;865;46013;-58
2022/05/25 04:26:23;;;;;;;15.70;9.57;;;;;;;;;;143732;588;46021;-58
2022/05/25 04:28:50;;;;;;;15.80;10.02;;;;;;;;;;143725;784;47020;-57
2022/05/25 04:31:17;;;;;;;22.58;13.23;;;;;;;;;;143724;571;46021;-57
2022/05/25 04:33:44;;;;;;;20.17;10.10;;;;;;;;;;143727;575;46012;-58
2022/05/25 04:36:11;;;;;;;16.52;10.20;;;;;;;;;;143731;591;46010;-57
2022/05/25 04:38:38;;;;;;;19.02;11.95;;;;;;;;;;143728;745;46022;-57
2022/05/25 04:41:05;;;;;;;25.27;11.00;;;;;;;;;;143727;776;46020;-58
2022/05/25 04:43:32;;;;;;;29.90;11.38;;;;;;;;;;143728;581;46012;-58
2022/05/25 04:46:01;;;;;;;30.08;14.07;;;;;;;;;;143730;571;46020;-58
2022/05/25 04:48:28;;;;;;;17.77;10.18;;;;;;;;;;143727;635;46049;-58
2022/05/25 04:50:56;;;;;;;15.73;9.18;;;;;;;;;;143726;586;46020;-58
2022/05/25 04:53:24;;;;;;;34.88;16.95;;;;;;;;;;143729;575;46020;-59
2022/05/25 04:58:39;;;;;;;29.98;13.90;;;;;;;;;;143729;582;45022;-59
2022/05/25 05:01:08;;;;;;;35.38;16.90;;;;;;;;;;143725;569;46021;-58
2022/05/25 05:03:35;;;;;;;35.38;19.50;;;;;;;;;;143729;597;46012;-59
2022/05/25 05:06:03;;;;;;;34.97;17.12;;;;;;;;;;143732;738;45020;-59
2022/05/25 05:08:31;;;;;;;36.17;18.02;;;;;;;;;;143727;609;46022;-59
2022/05/25 05:11:05;;;;;;;30.42;17.17;;;;;;;;;;143727;575;46020;-59
2022/05/25 05:13:32;;;;;;;32.83;19.92;;;;;;;;;;143729;585;46012;-59
2022/05/25 05:16:05;;;;;;;33.92;21.55;;;;;;;;;;143730;590;46020;-59
2022/05/25 05:18:32;;;;;;;45.85;19.77;;;;;;;;;;143729;628;46020;-59
2022/05/25 05:20:59;;;;;;;42.08;20.58;;;;;;;;;;143726;579;46020;-59
2022/05/25 05:23:26;;;;;;;42.55;22.90;;;;;;;;;;143729;631;46013;-59
2022/05/25 05:25:53;;;;;;;55.88;22.92;;;;;;;;;;143730;569;46010;-58
2022/05/25 05:28:24;;;;;;;39.08;23.80;;;;;;;;;;143728;630;47020;-58
2022/05/25 05:30:56;;;;;;;46.37;23.45;;;;;;;;;;143725;681;46021;-58
2022/05/25 05:33:25;;;;;;;46.22;21.77;;;;;;;;;;143727;655;46012;-59
2022/05/25 05:35:58;;;;;;;24.67;16.20;;;;;;;;;;143731;569;46010;-59
2022/05/25 05:38:26;;;;;;;37.42;15.95;;;;;;;;;;143727;576;47022;-59
2022/05/25 05:40:54;;;;;;;52.25;15.57;;;;;;;;;;143725;571;46021;-60
2022/05/25 05:43:21;;;;;;;20.88;13.32;;;;;;;;;;143727;702;46012;-60
2022/05/25 05:45:51;;;;;;;22.37;15.63;;;;;;;;;;143731;629;46010;-60
2022/05/25 05:48:23;;;;;;;18.52;12.40;;;;;;;;;;143727;673;47034;-59
2022/05/25 05:50:54;;;;;;;25.90;13.57;;;;;;;;;;143724;584;46020;-60
2022/05/25 05:53:22;;;;;;;21.33;12.57;;;;;;;;;;143728;658;46012;-59
2022/05/25 05:55:50;;;;;;;24.30;12.88;;;;;;;;;;143730;598;46010;-59
2022/05/25 05:58:17;;;;;;;21.95;13.10;;;;;;;;;;143726;588;47022;-59
2022/05/25 06:00:44;;;;;;;27.98;14.07;;;;;;;;;;143725;566;46021;-59
2022/05/25 06:03:12;;;;;;;25.90;12.55;;;;;;;;;;143726;602;46012;-59
2022/05/25 06:05:39;;;;;;;27.80;14.73;;;;;;;;;;143731;653;46020;-59
2022/05/25 06:08:11;;;;;;;21.05;11.85;;;;;;;;;;143728;576;46022;-60
2022/05/25 06:10:39;;;;;;;22.92;10.70;;;;;;;;;;143726;583;46020;-60
2022/05/25 06:13:07;;;;;;;18.25;10.27;;;;;;;;;;143727;635;46012;-58
2022/05/25 06:21:04;;;;;;;17.37;10.40;;;;;;;;;;143727;570;46012;-59
2022/05/25 06:23:31;;;;;;;20.90;9.50;;;;;;;;;;143727;608;46013;-59
2022/05/25 06:25:58;;;;;;;19.00;9.57;;;;;;;;;;143730;577;46014;-59
2022/05/25 06:28:25;;;;;;;14.80;9.27;;;;;;;;;;143728;597;47020;-59
2022/05/25 06:30:53;;;;;;;18.62;8.73;;;;;;;;;;143727;635;46021;-60
2022/05/25 06:33:21;;;;;;;16.02;8.85;;;;;;;;;;143730;573;46012;-59
2022/05/25 06:35:48;;;;;;;14.68;8.00;;;;;;;;;;143729;684;46030;-59
2022/05/25 06:38:16;;;;;;;14.45;7.87;;;;;;;;;;143729;735;46022;-59
2022/05/25 06:40:42;;;;;;;17.02;8.65;;;;;;;;;;143727;652;46020;-59
2022/05/25 06:43:09;;;;;;;15.75;8.15;;;;;;;;;;143729;580;46012;-59
2022/05/25 06:45:36;;;;;;;11.52;7.30;;;;;;;;;;143733;637;45021;-59
2022/05/25 06:48:04;;;;;;;11.40;7.85;;;;;;;;;;143728;602;46023;-59
2022/05/25 06:50:31;;;;;;;27.48;8.32;;;;;;;;;;143726;564;46020;-59
2022/05/25 06:52:58;;;;;;;11.43;6.35;;;;;;;;;;143728;577;46012;-59
2022/05/25 06:55:25;;;;;;;15.10;7.72;;;;;;;;;;143731;622;46012;-59
2022/05/25 06:57:52;;;;;;;15.05;7.12;;;;;;;;;;143726;677;47020;-60
2022/05/25 07:00:19;;;;;;;12.50;7.47;;;;;;;;;;143726;624;46021;-59
2022/05/25 07:02:46;;;;;;;10.90;7.37;;;;;;;;;;143729;631;46012;-59
2022/05/25 07:05:13;;;;;;;12.40;7.15;;;;;;;;;;143733;702;46020;-59
2022/05/25 07:07:40;;;;;;;19.77;7.55;;;;;;;;;;143729;620;46022;-59
2022/05/25 07:10:07;;;;;;;18.55;7.97;;;;;;;;;;143727;605;46020;-59
2022/05/25 07:12:35;;;;;;;13.30;6.97;;;;;;;;;;143729;605;46012;-59
2022/05/25 07:15:02;;;;;;;11.98;7.10;;;;;;;;;;143730;571;46021;-59
2022/05/25 07:17:30;;;;;;;12.57;6.87;;;;;;;;;;143730;595;46020;-59
2022/05/25 07:19:57;;;;;;;11.50;6.93;;;;;;;;;;143730;569;46020;-59
2022/05/25 07:22:24;;;;;;;14.98;7.85;;;;;;;;;;143727;577;46014;-60
2022/05/25 07:24:51;;;;;;;11.43;6.53;;;;;;;;;;143726;595;46020;-60
2022/05/25 07:27:18;;;;;;;13.77;7.03;;;;;;;;;;143729;625;46022;-59
2022/05/25 07:29:45;;;;;;;12.85;6.65;;;;;;;;;;143729;565;46020;-60
2022/05/25 07:32:13;;;;;;;17.90;7.57;;;;;;;;;;143729;584;46012;-59
2022/05/25 07:34:57;;;;;;;12.90;6.97;;;;;;;;;;143733;569;46020;-60
2022/05/25 07:37:26;;;;;;;11.35;7.03;;;;;;;;;;143728;576;46022;-59
2022/05/25 07:40:04;;;;;;;14.20;7.07;;;;;;;;;;143727;604;46021;-59
2022/05/25 07:42:32;;;;;;;15.18;7.55;;;;;;;;;;143727;575;46012;-59
2022/05/25 07:45:01;;;;;;;11.88;6.75;;;;;;;;;;143731;607;46015;-59
2022/05/25 07:47:30;;;;;;;11.10;7.05;;;;;;;;;;143729;607;46023;-59
2022/05/25 07:49:57;;;;;;;15.32;7.00;;;;;;;;;;143726;619;46020;-60
2022/05/25 07:52:27;;;;;;;10.38;6.65;;;;;;;;;;143726;610;46013;-60
2022/05/25 07:54:55;;;;;;;13.88;7.28;;;;;;;;;;143737;628;46020;-59
2022/05/25 07:57:22;;;;;;;11.73;6.53;;;;;;;;;;143728;580;46022;-60
2022/05/25 07:59:49;;;;;;;27.60;8.82;;;;;;;;;;143728;593;46021;-60
2022/05/25 08:08:13;;;;;;;13.77;7.47;;;;;;;;;;143731;564;46015;-60
2022/05/25 08:10:43;;;;;;;20.70;6.57;;;;;;;;;;143726;659;46020;-60
2022/05/25 08:13:14;;;;;;;13.98;7.18;;;;;;;;;;143728;726;46036;-60
2022/05/25 08:15:43;;;;;;;13.43;6.70;;;;;;;;;;143734;630;46020;-60
2022/05/25 08:18:13;;;;;;;13.20;7.07;;;;;;;;;;143728;576;47020;-60
2022/05/25 08:20:41;;;;;;;13.40;6.55;;;;;;;;;;143728;597;46020;-61
2022/05/25 08:23:10;;;;;;;12.48;7.15;;;;;;;;;;143728;667;46011;-60
2022/05/25 08:25:37;;;;;;;10.63;6.75;;;;;;;;;;143731;578;46012;-60
2022/05/25 08:28:05;;;;;;;13.50;7.07;;;;;;;;;;143725;653;47022;-61
2022/05/25 08:30:34;;;;;;;11.57;7.62;;;;;;;;;;143726;572;46028;-61
2022/05/25 08:33:01;;;;;;;9.68;7.22;;;;;;;;;;143730;648;46010;-61
2022/05/25 08:35:29;;;;;;;13.05;7.22;;;;;;;;;;143732;580;46020;-61
2022/05/25 08:37:57;;;;;;;17.85;8.10;;;;;;;;;;143729;659;46023;-61
2022/05/25 08:40:26;;;;;;;14.82;8.38;;;;;;;;;;143729;676;46020;-60
2022/05/25 08:43:18;;;;;;;13.07;6.82;;;;;;;;;;143728;599;46010;-61
2022/05/25 08:45:58;;;;;;;10.55;6.30;;;;;;;;;;143732;582;46021;-61
2022/05/25 08:48:27;;;;;;;15.82;7.45;;;;;;;;;;143729;589;46022;-59
2022/05/25 08:50:59;;;;;;;10.35;6.82;;;;;;;;;;143729;620;46020;-60
2022/05/25 08:53:26;;;;;;;12.27;7.12;;;;;;;;;;143728;594;46021;-60
2022/05/25 08:56:16;;;;;;;11.30;6.20;;;;;;;;;;143733;679;46012;-60
2022/05/25 08:59:08;;;;;;;10.65;5.80;;;;;;;;;;143729;628;46024;-60
2022/05/25 09:02:23;;;;;;;11.65;5.80;;;;;;;;;;143726;623;46020;-61
2022/05/25 09:04:56;;;;;;;11.88;6.37;;;;;;;;;;143727;618;46010;-61
2022/05/25 09:07:39;;;;;;;8.60;5.75;;;;;;;;;;143733;564;46012;-61
2022/05/25 09:10:08;;;;;;;10.70;6.68;;;;;;;;;;143729;613;46022;-61
2022/05/25 09:12:48;;;;;;;12.80;6.97;;;;;;;;;;143728;572;46020;-61
2022/05/25 09:15:26;;;;;;;12.45;6.03;;;;;;;;;;143729;592;46010;-61
2022/05/25 09:18:11;;;;;;;9.75;5.72;;;;;;;;;;143732;608;46020;-60
2022/05/25 09:20:43;;;;;;;13.05;6.85;;;;;;;;;;143730;579;46022;-61
2022/05/25 09:23:14;;;;;;;10.80;6.05;;;;;;;;;;143727;571;46021;-60
2022/05/25 09:25:44;;;;;;;13.23;7.72;;;;;;;;;;143731;582;46010;-60
2022/05/25 09:28:22;;;;;;;9.63;5.93;;;;;;;;;;143731;575;46020;-60
2022/05/25 09:30:53;;;;;;;11.25;6.62;;;;;;;;;;143729;592;47020;-60
2022/05/25 09:33:45;;;;;;;14.90;6.50;;;;;;;;;;143727;588;46020;-60
2022/05/25 09:36:35;;;;;;;11.07;6.00;;;;;;;;;;143728;564;46011;-60
2022/05/25 09:39:26;;;;;;;12.80;7.35;;;;;;;;;;143731;571;46021;-59
2022/05/25 09:42:00;;;;;;;9.70;6.28;;;;;;;;;;143730;588;46020;-60
2022/05/25 09:44:30;;;;;;;10.00;6.22;;;;;;;;;;143728;572;47010;-60
2022/05/25 09:47:04;;;;;;;10.18;6.18;;;;;;;;;;143727;574;46010;-60
2022/05/25 09:49:44;;;;;;;11.75;6.05;;;;;;;;;;143733;623;46012;-60
2022/05/25 09:52:24;;;;;;;9.95;6.10;;;;;;;;;;143729;607;46039;-60
2022/05/25 09:55:09;;;;;;;8.25;5.57;;;;;;;;;;143725;660;47020;-60
2022/05/25 09:57:40;;;;;;;8.98;5.93;;;;;;;;;;143729;596;46010;-60
2022/05/25 10:00:21;;;;;;;11.10;5.93;;;;;;;;;;143730;610;46011;-59
2022/05/25 10:02:58;;;;;;;11.65;4.90;;;;;;;;;;143730;577;46022;-60
2022/05/25 10:05:30;;;;;;;10.35;4.93;;;;;;;;;;143729;569;46020;-60
2022/05/25 10:08:18;;;;;;;12.30;5.87;;;;;;;;;;143730;610;46021;-60
2022/05/25 10:10:55;;;;;;;7.07;4.87;;;;;;;;;;143732;569;46012;-59
2022/05/25 10:13:25;;;;;;;11.50;5.62;;;;;;;;;;143729;578;46022;-60
2022/05/25 10:15:52;;;;;;;5.97;4.57;;;;;;;;;;143727;600;46020;-60
2022/05/25 10:18:41;;;;;;;14.18;4.78;;;;;;;;;;143727;587;46010;-60
2022/05/25 10:21:13;;;;;;;10.90;5.15;;;;;;;;;;143732;626;46012;-61
2022/05/25 10:23:44;;;;;;;12.15;5.28;;;;;;;;;;143731;593;45023;-60
2022/05/25 10:26:19;;;;;;;7.53;4.97;;;;;;;;;;143728;649;46915;-60
2022/05/25 10:38:42;;;;;;;7.95;4.90;;;;;;;;;;143726;592;47021;-59
2022/05/25 10:44:27;;;;;;;8.45;5.40;;;;;;;;;;143734;659;46021;-59
2022/05/25 10:46:58;;;;;;;6.45;4.68;;;;;;;;;;143730;553;46024;-59
2022/05/25 10:49:41;;;;;;;7.72;5.18;;;;;;;;;;143726;585;46028;-59
2022/05/25 10:52:19;;;;;;;7.60;4.70;;;;;;;;;;143727;639;46010;-59
2022/05/25 10:54:47;;;;;;;8.20;4.82;;;;;;;;;;143733;585;46010;-59
2022/05/25 10:57:56;;;;;;;11.85;5.10;;;;;;;;;;143730;569;46020;-59
2022/05/25 11:01:02;;;;;;;7.25;4.43;;;;;;;;;;143729;575;46020;-59
2022/05/25 11:04:03;;;;;;;11.38;5.03;;;;;;;;;;143729;657;46012;-59
2022/05/25 11:07:11;;;;;;;7.93;4.85;;;;;;;;;;143733;595;46020;-59
2022/05/25 11:10:18;;;;;;;12.05;5.25;;;;;;;;;;143729;626;46022;-59
2022/05/25 11:13:14;;;;;;;8.60;4.78;;;;;;;;;;143726;572;46020;-59
2022/05/25 11:16:41;;;;;;;10.90;5.20;;;;;;;;;;143728;660;46010;-59
2022/05/25 11:19:45;;;;;;;9.00;4.95;;;;;;;;;;143733;607;46020;-59
2022/05/25 11:22:34;;;;;;;9.20;4.70;;;;;;;;;;143733;567;46025;-59
2022/05/25 11:25:35;;;;;;;11.98;4.80;;;;;;;;;;143728;637;46024;-59
2022/05/25 11:28:39;;;;;;;10.23;5.30;;;;;;;;;;143729;595;46035;-59
2022/05/25 11:31:56;;;;;;;12.05;5.22;;;;;;;;;;143732;592;46010;-59
2022/05/25 11:35:04;;;;;;;8.90;5.03;;;;;;;;;;143728;645;46022;-59
2022/05/25 11:38:11;;;;;;;8.57;5.22;;;;;;;;;;143728;632;46022;-59
2022/05/25 11:41:16;;;;;;;9.88;5.03;;;;;;;;;;143726;618;46018;-59
2022/05/25 11:44:07;;;;;;;9.63;5.72;;;;;;;;;;143729;650;46010;-59
2022/05/25 11:47:05;;;;;;;6.72;4.25;;;;;;;;;;143727;673;46020;-59
2022/05/25 11:50:09;;;;;;;8.35;4.35;;;;;;;;;;143725;634;46022;-59
2022/05/25 11:53:27;;;;;;;8.77;5.40;;;;;;;;;;143729;597;46010;-59
2022/05/25 11:56:34;;;;;;;5.90;4.28;;;;;;;;;;143730;649;46032;-59
2022/05/25 11:59:53;;;;;;;12.43;5.00;;;;;;;;;;143727;631;46021;-59
2022/05/25 12:03:03;;;;;;;8.57;4.95;;;;;;;;;;143727;564;46022;-59
2022/05/25 12:06:04;;;;;;;9.27;4.90;;;;;;;;;;143726;569;46011;-59
2022/05/25 12:09:00;;;;;;;8.85;4.78;;;;;;;;;;143732;606;46010;-59
2022/05/25 12:11:51;;;;;;;10.13;4.55;;;;;;;;;;143727;581;46022;-59
2022/05/25 12:14:49;;;;;;;7.50;4.35;;;;;;;;;;143727;633;46023;-59
2022/05/25 12:17:51;;;;;;;7.35;4.37;;;;;;;;;;143727;600;46010;-59
2022/05/25 12:20:35;;;;;;;8.27;4.82;;;;;;;;;;143729;591;46014;-59
2022/05/25 12:23:12;;;;;;;6.55;4.43;;;;;;;;;;143728;631;46021;-59
2022/05/25 12:25:48;;;;;;;7.40;4.78;;;;;;;;;;143724;564;46022;-59
2022/05/25 12:28:16;;;;;;;8.05;4.68;;;;;;;;;;143725;666;46011;-59
2022/05/25 12:30:47;;;;;;;9.30;5.40;;;;;;;;;;143729;619;46012;-59
2022/05/25 12:33:23;;;;;;;12.18;5.22;;;;;;;;;;143727;616;46020;-59
2022/05/25 12:35:50;;;;;;;8.88;4.50;;;;;;;;;;143724;599;46023;-59
2022/05/25 12:38:21;;;;;;;11.15;4.72;;;;;;;;;;143726;588;46010;-59
2022/05/25 12:40:52;;;;;;;10.90;5.35;;;;;;;;;;143731;653;46012;-59
2022/05/25 12:43:56;;;;;;;9.85;5.35;;;;;;;;;;143728;628;46020;-59
2022/05/25 12:49:38;;;;;;;7.50;4.75;;;;;;;;;;143728;620;46018;-59
2022/05/25 12:52:39;;;;;;;9.77;5.43;;;;;;;;;;143727;595;46023;-59
2022/05/25 12:55:16;;;;;;;7.78;4.80;;;;;;;;;;143727;591;46010;-59
2022/05/25 12:57:51;;;;;;;9.20;4.93;;;;;;;;;;143723;671;46023;-59
2022/05/25 13:00:34;;;;;;;9.05;5.45;;;;;;;;;;143728;581;46010;-59
2022/05/25 13:03:54;;;;;;;9.73;5.37;;;;;;;;;;143730;647;46022;-59
2022/05/25 13:07:03;;;;;;;10.73;5.12;;;;;;;;;;143728;772;46019;-59
2022/05/25 13:09:42;;;;;;;11.70;5.78;;;;;;;;;;143724;585;46022;-59
2022/05/25 13:12:46;;;;;;;10.50;5.80;;;;;;;;;;143729;639;46011;-59
2022/05/25 13:15:39;;;;;;;7.37;5.10;;;;;;;;;;143729;629;46014;-59
2022/05/25 13:18:09;;;;;;;7.65;4.47;;;;;;;;;;143729;594;46020;-59
2022/05/25 13:20:59;;;;;;;7.50;5.15;;;;;;;;;;143724;584;46023;-58
2022/05/25 13:24:06;;;;;;;6.87;4.60;;;;;;;;;;143726;593;46010;-59
2022/05/25 13:27:02;;;;;;;7.43;4.70;;;;;;;;;;143730;590;46012;-59
2022/05/25 13:29:55;;;;;;;5.95;4.20;;;;;;;;;;143727;570;46023;-59
2022/05/25 13:32:50;;;;;;;7.00;4.50;;;;;;;;;;143725;582;46022;-59
2022/05/25 13:35:42;;;;;;;7.90;4.65;;;;;;;;;;143727;633;46011;-59
2022/05/25 13:38:27;;;;;;;9.00;4.95;;;;;;;;;;143730;606;46022;-59
2022/05/25 13:41:16;;;;;;;10.52;5.10;;;;;;;;;;143727;569;46020;-58
2022/05/25 13:44:19;;;;;;;11.48;5.97;;;;;;;;;;143723;603;46023;-59
2022/05/25 13:46:55;;;;;;;9.07;5.20;;;;;;;;;;143724;586;46010;-60
2022/05/25 13:49:41;;;;;;;9.93;5.68;;;;;;;;;;143729;605;46012;-59
2022/05/25 13:52:17;;;;;;;9.13;4.53;;;;;;;;;;143727;569;46018;-59
2022/05/25 13:54:48;;;;;;;13.77;5.80;;;;;;;;;;143726;581;46022;-59
2022/05/25 13:57:48;;;;;;;9.27;5.78;;;;;;;;;;143725;566;46010;-59
2022/05/25 14:00:41;;;;;;;7.30;4.93;;;;;;;;;;143731;579;46023;-59
2022/05/25 14:03:25;;;;;;;10.00;5.28;;;;;;;;;;143721;566;50018;-59
2022/05/25 14:06:00;;;;;;;8.77;5.37;;;;;;;;;;143722;607;46023;-59
2022/05/25 14:11:50;;;;;;;18.95;6.80;;;;;;;;;;143731;605;46022;-59
2022/05/25 14:14:36;;;;;;;8.68;4.97;;;;;;;;;;143727;596;46021;-59
2022/05/25 14:17:18;;;;;;;10.45;5.65;;;;;;;;;;143726;573;46022;-59
2022/05/25 14:19:58;;;;;;;8.95;6.28;;;;;;;;;;143725;589;46011;-58
2022/05/25 14:22:33;;;;;;;11.90;6.62;;;;;;;;;;143729;612;46023;-58
2022/05/25 14:25:12;;;;;;;14.07;6.07;;;;;;;;;;143727;572;46035;-59
2022/05/25 14:27:39;;;;;;;11.40;5.62;;;;;;;;;;143724;623;46025;-59
2022/05/25 14:30:20;;;;;;;7.05;5.25;;;;;;;;;;143725;569;46010;-59
2022/05/25 14:33:19;;;;;;;6.75;4.93;;;;;;;;;;143729;589;46010;-59
2022/05/25 14:35:52;;;;;;;12.43;5.20;;;;;;;;;;143727;565;46022;-58
2022/05/25 14:38:21;;;;;;;8.68;6.00;;;;;;;;;;143724;655;46022;-59
2022/05/25 14:40:54;;;;;;;8.55;5.28;;;;;;;;;;143726;614;46010;-59
2022/05/25 14:43:44;;;;;;;8.00;5.03;;;;;;;;;;143728;619;46023;-59
2022/05/25 14:46:20;;;;;;;7.70;5.40;;;;;;;;;;143726;581;47036;-58
2022/05/25 14:48:53;;;;;;;9.85;5.90;;;;;;;;;;143723;595;47010;-59
2022/05/25 14:51:25;;;;;;;12.70;6.82;;;;;;;;;;143727;593;46010;-58
2022/05/25 14:54:04;;;;;;;12.80;6.82;;;;;;;;;;143730;587;46022;-59
2022/05/25 14:56:33;;;;;;;12.27;6.43;;;;;;;;;;143726;565;47018;-59
2022/05/25 14:59:00;;;;;;;10.40;5.95;;;;;;;;;;143725;591;46023;-59
2022/05/25 15:01:30;;;;;;;9.05;5.62;;;;;;;;;;143725;569;46911;-59
2022/05/25 15:04:08;;;;;;;10.68;6.18;;;;;;;;;;143730;570;46022;-58
2022/05/25 15:07:01;;;;;;;13.32;6.37;;;;;;;;;;143726;594;46021;-59
2022/05/25 15:09:41;;;;;;;8.88;5.57;;;;;;;;;;143724;585;46022;-58
2022/05/25 15:12:43;;;;;;;9.23;5.47;;;;;;;;;;143726;592;46911;-58
2022/05/25 15:18:34;;;;;;;8.30;5.32;;;;;;;;;;143728;564;46010;-59
2022/05/25 15:21:27;;;;;;;7.97;5.47;;;;;;;;;;143724;604;46023;-58
2022/05/25 15:24:00;;;;;;;10.93;5.47;;;;;;;;;;143728;620;46010;-59
2022/05/25 15:26:42;;;;;;;8.93;5.47;;;;;;;;;;143731;586;46011;-58
2022/05/25 15:29:26;;;;;;;12.40;6.22;;;;;;;;;;143727;596;46021;-58
2022/05/25 15:31:57;;;;;;;11.55;5.65;;;;;;;;;;143725;571;46022;-59
2022/05/25 15:34:25;;;;;;;8.98;5.97;;;;;;;;;;143725;566;46010;-58
2022/05/25 15:36:53;;;;;;;11.82;5.80;;;;;;;;;;143730;623;46022;-59
2022/05/25 15:39:20;;;;;;;10.40;6.22;;;;;;;;;;143726;651;47018;-57
2022/05/25 15:41:47;;;;;;;7.62;5.40;;;;;;;;;;143726;584;46023;-59
2022/05/25 15:44:14;;;;;;;11.68;6.07;;;;;;;;;;143727;617;46010;-58
2022/05/25 15:46:44;;;;;;;10.82;6.10;;;;;;;;;;143728;573;46022;-59
2022/05/25 15:49:17;;;;;;;10.93;5.57;;;;;;;;;;143728;625;46012;-59
2022/05/25 15:51:55;;;;;;;8.82;5.68;;;;;;;;;;143727;593;46022;-59
2022/05/25 15:54:24;;;;;;;12.88;5.72;;;;;;;;;;143726;604;46010;-58
2022/05/25 15:56:52;;;;;;;8.07;5.37;;;;;;;;;;143731;579;46012;-59
2022/05/25 15:59:20;;;;;;;7.68;4.93;;;;;;;;;;143727;605;46021;-58
2022/05/25 16:01:48;;;;;;;9.20;5.97;;;;;;;;;;143724;576;46022;-59
2022/05/25 16:04:29;;;;;;;10.07;6.07;;;;;;;;;;143729;570;46010;-58
2022/05/25 16:06:57;;;;;;;9.70;5.85;;;;;;;;;;143730;719;46022;-58
2022/05/25 16:09:25;;;;;;;10.90;5.80;;;;;;;;;;143726;569;47018;-58
2022/05/25 16:12:05;;;;;;;14.07;6.30;;;;;;;;;;143725;699;46023;-58